Hitachimaru — JD2063 — position and weather

sailwx.info

Track history (hours):
 
Tides and Currents Weather Stations Pressure Air Temp Water Temp Dewpoint Dewpoint Depression Visibility Wind Speed Wind Dir Waves Ship Positions

Hitachimaru

Last reported at 2016-Sep-26 15:25 UTC. Time now 2016-Sep-26 19:00 UTC.
Position N 34°34' E 135°27'.

Length 83 m; draft 4.7 m.

Type: Cargo ship. MMSI: 431301756.

Date/timePositionNaut miles runAvg speedWind from/ knotsBaromVisibWave heightAir tempDewpointWater temp
2016-Sep-26 15:25N 34°34' E 135°27'0 0.0
2016-Sep-26 13:31N 34°34' E 135°27'1 0.6
2016-Sep-26 11:25N 34°35' E 135°27'0 0.0
2016-Sep-25 21:29N 34°35' E 135°27'27 6.8
2016-Sep-25 17:33N 34°15' E 135°07'0 0.0
2016-Sep-25 16:31N 34°15' E 135°07'0 0.0
2016-Sep-25 15:31N 34°15' E 135°07'0 0.0
2016-Sep-25 14:31N 34°15' E 135°07'0 0.0
2016-Sep-25 12:31N 34°15' E 135°07'0 0.0
2016-Sep-25 11:31N 34°15' E 135°07'0 0.0
2016-Sep-25 10:31N 34°15' E 135°07'0 0.0
2016-Sep-25 09:31N 34°15' E 135°07'0 0.0
2016-Sep-25 07:31N 34°15' E 135°07'0 0.0
2016-Sep-25 04:31N 34°15' E 135°07'2 0.4
2016-Sep-25 00:29N 34°15' E 135°05'0 0.0
2016-Sep-24 22:32N 34°15' E 135°05'0 0.1
2016-Sep-24 21:32N 34°15' E 135°05'0 0.0
2016-Sep-24 19:26N 34°15' E 135°05'0 0.0
2016-Sep-24 18:32N 34°15' E 135°05'0 0.0
2016-Sep-24 17:32N 34°15' E 135°05'0 0.0
2016-Sep-24 16:32N 34°15' E 135°05'0 0.0
2016-Sep-24 14:32N 34°15' E 135°05'0 0.0
2016-Sep-24 12:32N 34°15' E 135°05'0 0.0
2016-Sep-24 10:17N 34°15' E 135°05'0 0.0
2016-Sep-24 09:32N 34°15' E 135°05'0 0.0
2016-Sep-24 03:32N 34°15' E 135°05'0 0.0
2016-Sep-24 02:29N 34°15' E 135°05'1 0.9
2016-Sep-24 01:34N 34°14' E 135°05'  
2016-Sep-18 00:32N 35°26' E 140°39'29 7.1
2016-Sep-17 20:26N 35°55' E 140°40'1 0.1
2016-Sep-17 07:32N 35°55' E 140°41'  
Track history (hours):
 
Tides and Currents Weather Stations Pressure Air Temp Water Temp Dewpoint Dewpoint Depression Visibility Wind Speed Wind Dir Waves Ship Positions

Hitachimaru

Last reported at 2016-Sep-26 15:25 UTC. Time now 2016-Sep-26 19:00 UTC.
Position N 34°34' E 135°27'.

Length 83 m; draft 4.7 m.

Type: Cargo ship. MMSI: 431301756.

Date/timePositionNaut miles runAvg speedWind from/ knotsBaromVisibWave heightAir tempDewpointWater temp
2016-Sep-26 15:25N 34°34' E 135°27'0 0.0
2016-Sep-26 13:31N 34°34' E 135°27'1 0.6
2016-Sep-26 11:25N 34°35' E 135°27'0 0.0
2016-Sep-25 21:29N 34°35' E 135°27'27 6.8
2016-Sep-25 17:33N 34°15' E 135°07'0 0.0
2016-Sep-25 16:31N 34°15' E 135°07'0 0.0
2016-Sep-25 15:31N 34°15' E 135°07'0 0.0
2016-Sep-25 14:31N 34°15' E 135°07'0 0.0
2016-Sep-25 12:31N 34°15' E 135°07'0 0.0
2016-Sep-25 11:31N 34°15' E 135°07'0 0.0
2016-Sep-25 10:31N 34°15' E 135°07'0 0.0
2016-Sep-25 09:31N 34°15' E 135°07'0 0.0
2016-Sep-25 07:31N 34°15' E 135°07'0 0.0
2016-Sep-25 04:31N 34°15' E 135°07'2 0.4
2016-Sep-25 00:29N 34°15' E 135°05'0 0.0
2016-Sep-24 22:32N 34°15' E 135°05'0 0.1
2016-Sep-24 21:32N 34°15' E 135°05'0 0.0
2016-Sep-24 19:26N 34°15' E 135°05'0 0.0
2016-Sep-24 18:32N 34°15' E 135°05'0 0.0
2016-Sep-24 17:32N 34°15' E 135°05'0 0.0
2016-Sep-24 16:32N 34°15' E 135°05'0 0.0
2016-Sep-24 14:32N 34°15' E 135°05'0 0.0
2016-Sep-24 12:32N 34°15' E 135°05'0 0.0
2016-Sep-24 10:17N 34°15' E 135°05'0 0.0
2016-Sep-24 09:32N 34°15' E 135°05'0 0.0
2016-Sep-24 03:32N 34°15' E 135°05'0 0.0
2016-Sep-24 02:29N 34°15' E 135°05'1 0.9
2016-Sep-24 01:34N 34°14' E 135°05'  
2016-Sep-18 00:32N 35°26' E 140°39'29 7.1
2016-Sep-17 20:26N 35°55' E 140°40'1 0.1
2016-Sep-17 07:32N 35°55' E 140°41'  

Dump ship's entire track history